Ulverston, United Kingdom
Current Conditions -  °F | °C
As of 8:50 PM on Sunday 25 Jan 2015 (Local Time) from EGNH Reporting Station
Broken Clouds Broken Clouds  
Wind Chill: 39°   Ceiling: 3500
Heat Index: 45°   Visibility: 6mi
Dew Point: 45°   Wind: 10mph
Humidity: 100%   Direction: 200°SSW
Pressure: 30.15"   Gusts: NA
Location:  54.2°N, 3.1°W
Report Text: EGNH 252050Z 20009KT 9999 SCT022 BKN035 07/07 Q1021
Loading
Personal Weather Stations






























Interactive Weather Map New forecast layout! Learn more

10-Day Weather Forecast

Advertisements
Track Severe Weather on mobile